sensor_id;sensor_type;location;lat;lon;timestamp;temperature;humidity
40960;DHT22;27842;52.272;8.052;2023-08-24T04:50:20;20.10;93.10
40960;DHT22;27842;52.272;8.052;2023-08-24T04:52:46;20.10;93.00
40960;DHT22;27842;52.272;8.052;2023-08-24T04:55:11;20.10;93.00
40960;DHT22;27842;52.272;8.052;2023-08-24T04:57:36;20.10;93.20
40960;DHT22;27842;52.272;8.052;2023-08-24T05:00:02;20.10;93.40
40960;DHT22;27842;52.272;8.052;2023-08-24T05:02:30;20.10;93.10
40960;DHT22;27842;52.272;8.052;2023-08-24T05:04:56;20.10;93.30
40960;DHT22;27842;52.272;8.052;2023-08-24T05:07:21;20.10;93.20
40960;DHT22;27842;52.272;8.052;2023-08-24T05:09:47;20.00;93.20
40960;DHT22;27842;52.272;8.052;2023-08-24T05:12:12;20.10;93.20
40960;DHT22;27842;52.272;8.052;2023-08-24T05:14:38;20.10;93.20
40960;DHT22;27842;52.272;8.052;2023-08-24T05:17:03;20.10;93.20
40960;DHT22;27842;52.272;8.052;2023-08-24T05:19:30;20.10;93.20
40960;DHT22;27842;52.272;8.052;2023-08-24T05:21:55;20.10;93.20
40960;DHT22;27842;52.272;8.052;2023-08-24T05:24:21;20.10;93.20
40960;DHT22;27842;52.272;8.052;2023-08-24T05:26:46;20.10;93.20
40960;DHT22;27842;52.272;8.052;2023-08-24T05:29:12;20.20;93.20
40960;DHT22;27842;52.272;8.052;2023-08-24T05:31:37;20.10;93.20
40960;DHT22;27842;52.272;8.052;2023-08-24T05:34:03;20.10;93.20
40960;DHT22;27842;52.272;8.052;2023-08-24T05:36:28;20.10;93.30
40960;DHT22;27842;52.272;8.052;2023-08-24T05:38:54;20.10;93.20
40960;DHT22;27842;52.272;8.052;2023-08-24T05:41:21;20.20;93.30
40960;DHT22;27842;52.272;8.052;2023-08-24T05:43:47;20.10;93.40
40960;DHT22;27842;52.272;8.052;2023-08-24T05:46:12;20.10;93.40
40960;DHT22;27842;52.272;8.052;2023-08-24T05:48:38;20.20;93.40
40960;DHT22;27842;52.272;8.052;2023-08-24T05:51:03;20.20;93.70
40960;DHT22;27842;52.272;8.052;2023-08-24T05:53:31;20.20;93.40
40960;DHT22;27842;52.272;8.052;2023-08-24T05:55:57;20.10;93.40
40960;DHT22;27842;52.272;8.052;2023-08-24T05:58:23;20.10;93.40
40960;DHT22;27842;52.272;8.052;2023-08-24T06:00:50;20.10;93.40
40960;DHT22;27842;52.272;8.052;2023-08-24T06:03:20;20.10;93.40
40960;DHT22;27842;52.272;8.052;2023-08-24T06:05:45;20.20;93.40
40960;DHT22;27842;52.272;8.052;2023-08-24T06:08:11;20.20;93.40
40960;DHT22;27842;52.272;8.052;2023-08-24T06:10:36;20.20;93.40
40960;DHT22;27842;52.272;8.052;2023-08-24T06:13:02;20.20;93.40
40960;DHT22;27842;52.272;8.052;2023-08-24T06:15:27;20.20;93.40
40960;DHT22;27842;52.272;8.052;2023-08-24T06:17:53;20.30;93.50
40960;DHT22;27842;52.272;8.052;2023-08-24T06:20:19;20.20;93.40
40960;DHT22;27842;52.272;8.052;2023-08-24T06:22:44;20.20;93.40
40960;DHT22;27842;52.272;8.052;2023-08-24T06:25:10;20.30;93.40
40960;DHT22;27842;52.272;8.052;2023-08-24T06:27:36;20.30;93.40
40960;DHT22;27842;52.272;8.052;2023-08-24T06:30:02;20.30;93.40
40960;DHT22;27842;52.272;8.052;2023-08-24T06:32:28;20.30;93.40
40960;DHT22;27842;52.272;8.052;2023-08-24T06:34:54;20.30;93.50
40960;DHT22;27842;52.272;8.052;2023-08-24T06:37:20;20.40;93.40
40960;DHT22;27842;52.272;8.052;2023-08-24T06:39:46;20.40;93.40
40960;DHT22;27842;52.272;8.052;2023-08-24T06:42:11;20.40;93.40
40960;DHT22;27842;52.272;8.052;2023-08-24T06:44:37;20.50;93.40
40960;DHT22;27842;52.272;8.052;2023-08-24T06:47:03;20.50;93.50
40960;DHT22;27842;52.272;8.052;2023-08-24T06:49:28;20.50;93.40
40960;DHT22;27842;52.272;8.052;2023-08-24T06:51:54;20.60;93.30
40960;DHT22;27842;52.272;8.052;2023-08-24T06:54:23;20.60;93.40
40960;DHT22;27842;52.272;8.052;2023-08-24T06:56:48;20.70;94.50
40960;DHT22;27842;52.272;8.052;2023-08-24T06:59:14;20.70;93.30
40960;DHT22;27842;52.272;8.052;2023-08-24T07:01:40;20.80;93.40
40960;DHT22;27842;52.272;8.052;2023-08-24T07:04:06;20.90;93.50
40960;DHT22;27842;52.272;8.052;2023-08-24T07:06:33;21.00;93.20
40960;DHT22;27842;52.272;8.052;2023-08-24T07:08:58;21.10;93.20
40960;DHT22;27842;52.272;8.052;2023-08-24T07:11:24;21.20;93.00
40960;DHT22;27842;52.272;8.052;2023-08-24T07:13:49;21.30;93.00
40960;DHT22;27842;52.272;8.052;2023-08-24T07:16:16;21.30;93.30
40960;DHT22;27842;52.272;8.052;2023-08-24T07:18:41;21.40;92.80
40960;DHT22;27842;52.272;8.052;2023-08-24T07:21:07;21.40;93.00
40960;DHT22;27842;52.272;8.052;2023-08-24T07:23:32;21.50;93.10
40960;DHT22;27842;52.272;8.052;2023-08-24T07:25:58;21.50;92.70
40960;DHT22;27842;52.272;8.052;2023-08-24T07:28:23;21.60;92.60
40960;DHT22;27842;52.272;8.052;2023-08-24T07:30:49;21.70;92.60
40960;DHT22;27842;52.272;8.052;2023-08-24T07:33:14;21.80;92.50
40960;DHT22;27842;52.272;8.052;2023-08-24T07:35:41;21.90;92.60
40960;DHT22;27842;52.272;8.052;2023-08-24T07:38:06;21.90;92.30
40960;DHT22;27842;52.272;8.052;2023-08-24T07:40:32;22.00;92.30
40960;DHT22;27842;52.272;8.052;2023-08-24T07:42:57;22.10;92.30
40960;DHT22;27842;52.272;8.052;2023-08-24T07:45:23;22.10;92.20
40960;DHT22;27842;52.272;8.052;2023-08-24T07:47:48;22.10;92.20
40960;DHT22;27842;52.272;8.052;2023-08-24T07:50:14;22.20;92.10
40960;DHT22;27842;52.272;8.052;2023-08-24T07:52:40;22.20;92.10
40960;DHT22;27842;52.272;8.052;2023-08-24T07:55:05;22.30;92.00
40960;DHT22;27842;52.272;8.052;2023-08-24T07:57:35;22.30;92.00
40960;DHT22;27842;52.272;8.052;2023-08-24T08:00:02;22.30;92.00
40960;DHT22;27842;52.272;8.052;2023-08-24T08:02:27;22.40;92.30
40960;DHT22;27842;52.272;8.052;2023-08-24T08:04:56;22.50;92.20
40960;DHT22;27842;52.272;8.052;2023-08-24T08:07:23;22.50;91.90
40960;DHT22;27842;52.272;8.052;2023-08-24T08:09:49;22.50;92.50
40960;DHT22;27842;52.272;8.052;2023-08-24T08:12:14;22.60;92.20
40960;DHT22;27842;52.272;8.052;2023-08-24T08:14:40;22.60;91.90
40960;DHT22;27842;52.272;8.052;2023-08-24T08:17:05;22.70;91.90
40960;DHT22;27842;52.272;8.052;2023-08-24T08:19:31;22.80;91.80
40960;DHT22;27842;52.272;8.052;2023-08-24T08:21:57;22.80;91.90
40960;DHT22;27842;52.272;8.052;2023-08-24T08:24:22;22.90;91.70
40960;DHT22;27842;52.272;8.052;2023-08-24T08:26:48;23.00;91.70
40960;DHT22;27842;52.272;8.052;2023-08-24T08:29:13;23.00;92.00
40960;DHT22;27842;52.272;8.052;2023-08-24T08:31:40;23.10;91.50
40960;DHT22;27842;52.272;8.052;2023-08-24T08:34:06;23.20;91.50
40960;DHT22;27842;52.272;8.052;2023-08-24T08:36:31;23.20;91.80
40960;DHT22;27842;52.272;8.052;2023-08-24T08:38:58;23.20;91.60
40960;DHT22;27842;52.272;8.052;2023-08-24T08:41:23;23.30;91.70
40960;DHT22;27842;52.272;8.052;2023-08-24T08:43:51;23.40;92.10
40960;DHT22;27842;52.272;8.052;2023-08-24T08:46:16;23.50;91.50
40960;DHT22;27842;52.272;8.052;2023-08-24T08:48:43;23.60;91.50
40960;DHT22;27842;52.272;8.052;2023-08-24T08:51:10;23.60;91.30
40960;DHT22;27842;52.272;8.052;2023-08-24T08:53:35;23.60;91.30
40960;DHT22;27842;52.272;8.052;2023-08-24T08:56:01;23.60;91.20
40960;DHT22;27842;52.272;8.052;2023-08-24T08:58:31;23.70;91.20
40960;DHT22;27842;52.272;8.052;2023-08-24T09:00:57;23.70;91.20
40960;DHT22;27842;52.272;8.052;2023-08-24T09:03:25;23.80;91.20
40960;DHT22;27842;52.272;8.052;2023-08-24T09:05:51;23.90;91.10
40960;DHT22;27842;52.272;8.052;2023-08-24T09:08:17;24.00;91.00
40960;DHT22;27842;52.272;8.052;2023-08-24T09:10:43;24.10;90.90
40960;DHT22;27842;52.272;8.052;2023-08-24T09:13:09;24.20;90.90
40960;DHT22;27842;52.272;8.052;2023-08-24T09:15:35;24.20;90.70
40960;DHT22;27842;52.272;8.052;2023-08-24T09:18:01;24.30;90.60
40960;DHT22;27842;52.272;8.052;2023-08-24T09:20:28;24.40;90.50
40960;DHT22;27842;52.272;8.052;2023-08-24T09:22:54;24.50;90.60
40960;DHT22;27842;52.272;8.052;2023-08-24T09:25:25;24.50;90.20
40960;DHT22;27842;52.272;8.052;2023-08-24T09:27:57;24.50;90.50
40960;DHT22;27842;52.272;8.052;2023-08-24T09:30:23;24.60;90.10
40960;DHT22;27842;52.272;8.052;2023-08-24T09:32:48;24.60;90.40
40960;DHT22;27842;52.272;8.052;2023-08-24T09:35:14;24.60;90.30
40960;DHT22;27842;52.272;8.052;2023-08-24T09:37:41;24.70;89.30
40960;DHT22;27842;52.272;8.052;2023-08-24T09:40:11;24.80;90.30
40960;DHT22;27842;52.272;8.052;2023-08-24T09:42:41;24.80;90.20
40960;DHT22;27842;52.272;8.052;2023-08-24T09:45:13;24.90;90.00
40960;DHT22;27842;52.272;8.052;2023-08-24T09:47:39;25.00;87.60
40960;DHT22;27842;52.272;8.052;2023-08-24T09:50:05;25.10;90.00
40960;DHT22;27842;52.272;8.052;2023-08-24T09:52:32;25.20;89.70
40960;DHT22;27842;52.272;8.052;2023-08-24T09:55:02;25.30;88.60
40960;DHT22;27842;52.272;8.052;2023-08-24T09:57:31;25.30;89.40
40960;DHT22;27842;52.272;8.052;2023-08-24T09:59:56;25.30;86.70
40960;DHT22;27842;52.272;8.052;2023-08-24T10:02:23;25.30;86.90
40960;DHT22;27842;52.272;8.052;2023-08-24T10:04:52;25.40;89.10
40960;DHT22;27842;52.272;8.052;2023-08-24T10:07:19;25.40;87.50
40960;DHT22;27842;52.272;8.052;2023-08-24T10:12:11;25.50;85.40
40960;DHT22;27842;52.272;8.052;2023-08-24T10:17:03;25.60;86.20
40960;DHT22;27842;52.272;8.052;2023-08-24T10:19:29;25.70;85.40
40960;DHT22;27842;52.272;8.052;2023-08-24T10:21:55;25.70;84.50
40960;DHT22;27842;52.272;8.052;2023-08-24T10:24:22;25.70;82.60
40960;DHT22;27842;52.272;8.052;2023-08-24T10:26:48;25.80;86.80
40960;DHT22;27842;52.272;8.052;2023-08-24T10:29:15;25.80;84.10
40960;DHT22;27842;52.272;8.052;2023-08-24T10:31:41;25.80;87.40
40960;DHT22;27842;52.272;8.052;2023-08-24T10:34:08;25.90;81.90
40960;DHT22;27842;52.272;8.052;2023-08-24T10:36:34;25.90;87.50
40960;DHT22;27842;52.272;8.052;2023-08-24T10:39:03;26.00;83.90
40960;DHT22;27842;52.272;8.052;2023-08-24T10:41:47;26.10;86.30
40960;DHT22;27842;52.272;8.052;2023-08-24T10:44:19;26.20;85.60
40960;DHT22;27842;52.272;8.052;2023-08-24T10:47:04;26.30;86.30
40960;DHT22;27842;52.272;8.052;2023-08-24T10:49:31;26.30;86.70
40960;DHT22;27842;52.272;8.052;2023-08-24T10:52:21;26.40;86.30
40960;DHT22;27842;52.272;8.052;2023-08-24T10:54:49;26.40;81.70
40960;DHT22;27842;52.272;8.052;2023-08-24T10:57:18;26.40;86.20
40960;DHT22;27842;52.272;8.052;2023-08-24T11:00:09;26.40;85.90
40960;DHT22;27842;52.272;8.052;2023-08-24T11:02:46;26.40;82.00
40960;DHT22;27842;52.272;8.052;2023-08-24T11:05:19;26.40;85.90
40960;DHT22;27842;52.272;8.052;2023-08-24T11:07:56;26.50;86.20
40960;DHT22;27842;52.272;8.052;2023-08-24T11:11:05;26.50;85.50
40960;DHT22;27842;52.272;8.052;2023-08-24T11:13:15;26.50;86.00
40960;DHT22;27842;52.272;8.052;2023-08-24T11:15:45;26.60;85.50
40960;DHT22;27842;52.272;8.052;2023-08-24T11:18:11;26.60;85.30
40960;DHT22;27842;52.272;8.052;2023-08-24T11:20:37;26.60;81.70
40960;DHT22;27842;52.272;8.052;2023-08-24T11:23:02;26.60;81.40
40960;DHT22;27842;52.272;8.052;2023-08-24T11:25:28;26.60;85.50
40960;DHT22;27842;52.272;8.052;2023-08-24T11:27:54;26.70;85.60
40960;DHT22;27842;52.272;8.052;2023-08-24T11:30:19;26.70;82.80
40960;DHT22;27842;52.272;8.052;2023-08-24T11:32:45;26.80;85.90
40960;DHT22;27842;52.272;8.052;2023-08-24T11:35:18;26.80;84.60
40960;DHT22;27842;52.272;8.052;2023-08-24T11:37:43;26.80;83.20
40960;DHT22;27842;52.272;8.052;2023-08-24T11:40:16;26.90;82.20
40960;DHT22;27842;52.272;8.052;2023-08-24T11:42:41;26.90;82.00
40960;DHT22;27842;52.272;8.052;2023-08-24T11:45:13;27.00;84.30
40960;DHT22;27842;52.272;8.052;2023-08-24T11:47:40;27.00;84.10
40960;DHT22;27842;52.272;8.052;2023-08-24T11:50:05;27.00;85.00
40960;DHT22;27842;52.272;8.052;2023-08-24T11:52:31;27.10;85.10
40960;DHT22;27842;52.272;8.052;2023-08-24T11:55:00;27.10;84.90
40960;DHT22;27842;52.272;8.052;2023-08-24T11:57:26;27.20;85.40
40960;DHT22;27842;52.272;8.052;2023-08-24T11:59:53;27.20;83.70
40960;DHT22;27842;52.272;8.052;2023-08-24T12:02:20;27.30;85.20
40960;DHT22;27842;52.272;8.052;2023-08-24T12:04:48;27.30;84.90
40960;DHT22;27842;52.272;8.052;2023-08-24T12:07:14;27.40;81.30
40960;DHT22;27842;52.272;8.052;2023-08-24T12:09:40;27.40;83.00
40960;DHT22;27842;52.272;8.052;2023-08-24T12:12:11;27.40;82.00
40960;DHT22;27842;52.272;8.052;2023-08-24T12:14:43;27.50;85.10
40960;DHT22;27842;52.272;8.052;2023-08-24T12:17:09;27.50;81.10
40960;DHT22;27842;52.272;8.052;2023-08-24T12:19:34;27.60;83.40
40960;DHT22;27842;52.272;8.052;2023-08-24T12:22:00;27.70;83.90
40960;DHT22;27842;52.272;8.052;2023-08-24T12:24:25;27.80;85.10
40960;DHT22;27842;52.272;8.052;2023-08-24T12:26:57;27.90;85.00
40960;DHT22;27842;52.272;8.052;2023-08-24T12:29:23;28.00;84.70
40960;DHT22;27842;52.272;8.052;2023-08-24T12:31:49;28.10;81.90
40960;DHT22;27842;52.272;8.052;2023-08-24T12:34:14;28.20;82.60
40960;DHT22;27842;52.272;8.052;2023-08-24T12:36:41;28.30;84.50
40960;DHT22;27842;52.272;8.052;2023-08-24T12:39:06;28.40;81.00
40960;DHT22;27842;52.272;8.052;2023-08-24T12:41:33;28.40;82.40
40960;DHT22;27842;52.272;8.052;2023-08-24T12:43:58;28.50;84.30
40960;DHT22;27842;52.272;8.052;2023-08-24T12:46:24;28.50;80.40
40960;DHT22;27842;52.272;8.052;2023-08-24T12:48:50;28.60;83.00
40960;DHT22;27842;52.272;8.052;2023-08-24T12:51:16;28.70;84.20
40960;DHT22;27842;52.272;8.052;2023-08-24T12:53:42;28.70;83.20
40960;DHT22;27842;52.272;8.052;2023-08-24T12:56:08;28.70;80.80
40960;DHT22;27842;52.272;8.052;2023-08-24T12:58:33;28.80;83.60
40960;DHT22;27842;52.272;8.052;2023-08-24T13:00:59;28.80;83.40
40960;DHT22;27842;52.272;8.052;2023-08-24T13:03:25;28.80;81.80
40960;DHT22;27842;52.272;8.052;2023-08-24T13:05:50;28.90;83.60
40960;DHT22;27842;52.272;8.052;2023-08-24T13:08:16;28.80;80.00
40960;DHT22;27842;52.272;8.052;2023-08-24T13:10:41;28.80;81.90
40960;DHT22;27842;52.272;8.052;2023-08-24T13:13:07;28.90;83.70
40960;DHT22;27842;52.272;8.052;2023-08-24T13:15:33;28.90;81.90
40960;DHT22;27842;52.272;8.052;2023-08-24T13:17:58;28.80;83.30
40960;DHT22;27842;52.272;8.052;2023-08-24T13:20:24;28.80;80.20
40960;DHT22;27842;52.272;8.052;2023-08-24T13:22:52;28.80;82.70
40960;DHT22;27842;52.272;8.052;2023-08-24T13:31:08;28.60;76.80
40960;DHT22;27842;52.272;8.052;2023-08-24T13:33:33;28.60;83.40
40960;DHT22;27842;52.272;8.052;2023-08-24T13:35:59;28.60;82.70
40960;DHT22;27842;52.272;8.052;2023-08-24T13:38:27;28.60;84.00
40960;DHT22;27842;52.272;8.052;2023-08-24T13:40:52;28.50;80.70
40960;DHT22;27842;52.272;8.052;2023-08-24T13:43:18;28.60;82.80
40960;DHT22;27842;52.272;8.052;2023-08-24T13:45:45;28.50;79.90
40960;DHT22;27842;52.272;8.052;2023-08-24T13:48:10;28.50;80.50
40960;DHT22;27842;52.272;8.052;2023-08-24T13:50:36;28.50;83.20
40960;DHT22;27842;52.272;8.052;2023-08-24T13:53:01;28.60;82.30
40960;DHT22;27842;52.272;8.052;2023-08-24T13:55:27;28.60;78.40
40960;DHT22;27842;52.272;8.052;2023-08-24T13:57:53;28.70;82.30
40960;DHT22;27842;52.272;8.052;2023-08-24T14:00:18;28.70;82.60
40960;DHT22;27842;52.272;8.052;2023-08-24T14:02:44;28.70;79.10
40960;DHT22;27842;52.272;8.052;2023-08-24T14:05:10;28.80;81.80
40960;DHT22;27842;52.272;8.052;2023-08-24T14:07:36;28.80;83.20
40960;DHT22;27842;52.272;8.052;2023-08-24T14:10:02;28.80;82.70
40960;DHT22;27842;52.272;8.052;2023-08-24T14:12:28;28.70;80.80
40960;DHT22;27842;52.272;8.052;2023-08-24T14:14:54;28.70;80.10
40960;DHT22;27842;52.272;8.052;2023-08-24T14:17:20;28.70;82.60
40960;DHT22;27842;52.272;8.052;2023-08-24T14:19:45;28.60;82.20
40960;DHT22;27842;52.272;8.052;2023-08-24T14:22:11;28.60;82.90
40960;DHT22;27842;52.272;8.052;2023-08-24T14:24:36;28.50;78.80
40960;DHT22;27842;52.272;8.052;2023-08-24T14:27:02;28.40;82.90
40960;DHT22;27842;52.272;8.052;2023-08-24T14:29:28;28.40;81.90
40960;DHT22;27842;52.272;8.052;2023-08-24T14:31:53;28.30;82.90
40960;DHT22;27842;52.272;8.052;2023-08-24T14:34:18;28.30;83.60
40960;DHT22;27842;52.272;8.052;2023-08-24T14:36:44;28.10;83.00
40960;DHT22;27842;52.272;8.052;2023-08-24T14:39:09;28.10;80.90
40960;DHT22;27842;52.272;8.052;2023-08-24T14:41:35;28.00;83.20
40960;DHT22;27842;52.272;8.052;2023-08-24T14:44:01;28.00;83.70
40960;DHT22;27842;52.272;8.052;2023-08-24T14:46:26;27.90;81.30
40960;DHT22;27842;52.272;8.052;2023-08-24T14:48:58;27.90;83.50
40960;DHT22;27842;52.272;8.052;2023-08-24T14:51:23;27.80;83.60
40960;DHT22;27842;52.272;8.052;2023-08-24T14:53:49;27.80;84.30
40960;DHT22;27842;52.272;8.052;2023-08-24T14:56:14;27.80;82.60
40960;DHT22;27842;52.272;8.052;2023-08-24T14:58:40;27.70;84.70
40960;DHT22;27842;52.272;8.052;2023-08-24T15:01:05;27.70;84.90
40960;DHT22;27842;52.272;8.052;2023-08-24T15:03:31;27.60;85.10
40960;DHT22;27842;52.272;8.052;2023-08-24T15:08:22;27.40;85.90
40960;DHT22;27842;52.272;8.052;2023-08-24T15:10:48;27.30;86.20
40960;DHT22;27842;52.272;8.052;2023-08-24T15:13:13;27.30;86.50
40960;DHT22;27842;52.272;8.052;2023-08-24T15:15:39;27.30;86.30
40960;DHT22;27842;52.272;8.052;2023-08-24T15:18:04;27.20;86.30
40960;DHT22;27842;52.272;8.052;2023-08-24T15:20:30;27.10;86.30
40960;DHT22;27842;52.272;8.052;2023-08-24T15:22:58;27.10;87.20
40960;DHT22;27842;52.272;8.052;2023-08-24T15:25:23;27.10;86.70
40960;DHT22;27842;52.272;8.052;2023-08-24T15:27:48;27.10;86.70
40960;DHT22;27842;52.272;8.052;2023-08-24T15:30:14;27.00;86.70
40960;DHT22;27842;52.272;8.052;2023-08-24T15:32:40;27.00;87.40
40960;DHT22;27842;52.272;8.052;2023-08-24T15:35:05;26.90;87.60
40960;DHT22;27842;52.272;8.052;2023-08-24T15:37:31;26.90;87.20
40960;DHT22;27842;52.272;8.052;2023-08-24T15:39:56;26.90;87.50
40960;DHT22;27842;52.272;8.052;2023-08-24T15:42:23;26.90;88.20
40960;DHT22;27842;52.272;8.052;2023-08-24T15:44:48;26.80;87.40
40960;DHT22;27842;52.272;8.052;2023-08-24T15:47:14;26.80;88.10
40960;DHT22;27842;52.272;8.052;2023-08-24T15:49:39;26.80;88.30
40960;DHT22;27842;52.272;8.052;2023-08-24T15:52:05;26.70;87.70
40960;DHT22;27842;52.272;8.052;2023-08-24T15:54:30;26.70;88.40
40960;DHT22;27842;52.272;8.052;2023-08-24T15:56:56;26.60;87.90
40960;DHT22;27842;52.272;8.052;2023-08-24T15:59:21;26.60;88.10
40960;DHT22;27842;52.272;8.052;2023-08-24T16:01:47;26.60;88.30
40960;DHT22;27842;52.272;8.052;2023-08-24T16:04:12;26.60;88.80
40960;DHT22;27842;52.272;8.052;2023-08-24T16:06:39;26.60;89.00
40960;DHT22;27842;52.272;8.052;2023-08-24T16:09:04;26.60;89.40
40960;DHT22;27842;52.272;8.052;2023-08-24T16:11:30;26.60;89.00
40960;DHT22;27842;52.272;8.052;2023-08-24T16:13:55;26.60;89.50
40960;DHT22;27842;52.272;8.052;2023-08-24T16:16:21;26.60;88.30
40960;DHT22;27842;52.272;8.052;2023-08-24T16:18:46;26.60;89.10
40960;DHT22;27842;52.272;8.052;2023-08-24T16:21:12;26.50;89.00
40960;DHT22;27842;52.272;8.052;2023-08-24T16:23:37;26.50;88.80
40960;DHT22;27842;52.272;8.052;2023-08-24T16:26:02;26.50;88.90
40960;DHT22;27842;52.272;8.052;2023-08-24T16:28:28;26.50;88.80
40960;DHT22;27842;52.272;8.052;2023-08-24T16:30:53;26.50;89.20
40960;DHT22;27842;52.272;8.052;2023-08-24T16:33:19;26.50;89.60
40960;DHT22;27842;52.272;8.052;2023-08-24T16:35:45;26.50;88.60
40960;DHT22;27842;52.272;8.052;2023-08-24T16:38:11;26.50;88.80
40960;DHT22;27842;52.272;8.052;2023-08-24T16:40:36;26.50;89.20
40960;DHT22;27842;52.272;8.052;2023-08-24T16:43:02;26.40;89.00
40960;DHT22;27842;52.272;8.052;2023-08-24T16:45:27;26.50;89.00
40960;DHT22;27842;52.272;8.052;2023-08-24T16:47:53;26.40;88.80
40960;DHT22;27842;52.272;8.052;2023-08-24T16:50:19;26.40;88.80
40960;DHT22;27842;52.272;8.052;2023-08-24T16:52:45;26.40;89.10
40960;DHT22;27842;52.272;8.052;2023-08-24T16:55:11;26.40;89.20
40960;DHT22;27842;52.272;8.052;2023-08-24T16:57:36;26.40;89.10
40960;DHT22;27842;52.272;8.052;2023-08-24T17:00:02;26.40;89.10
40960;DHT22;27842;52.272;8.052;2023-08-24T17:02:27;26.40;89.00
40960;DHT22;27842;52.272;8.052;2023-08-24T17:04:53;26.40;89.10
40960;DHT22;27842;52.272;8.052;2023-08-24T17:07:18;26.40;89.00
40960;DHT22;27842;52.272;8.052;2023-08-24T17:09:44;26.30;88.90
40960;DHT22;27842;52.272;8.052;2023-08-24T17:12:10;26.40;89.20
40960;DHT22;27842;52.272;8.052;2023-08-24T17:14:36;26.30;89.00
40960;DHT22;27842;52.272;8.052;2023-08-24T17:17:02;26.30;89.20
40960;DHT22;27842;52.272;8.052;2023-08-24T17:19:28;26.30;89.30
40960;DHT22;27842;52.272;8.052;2023-08-24T17:21:54;26.30;89.80
40960;DHT22;27842;52.272;8.052;2023-08-24T17:24:19;26.30;89.20
40960;DHT22;27842;52.272;8.052;2023-08-24T17:26:45;26.30;89.30
40960;DHT22;27842;52.272;8.052;2023-08-24T17:29:10;26.30;89.40
40960;DHT22;27842;52.272;8.052;2023-08-24T17:31:36;26.30;89.40
40960;DHT22;27842;52.272;8.052;2023-08-24T17:34:01;26.20;89.20
40960;DHT22;27842;52.272;8.052;2023-08-24T17:36:29;26.20;89.30
40960;DHT22;27842;52.272;8.052;2023-08-24T17:38:54;26.20;89.60
40960;DHT22;27842;52.272;8.052;2023-08-24T17:41:20;26.20;90.00
40960;DHT22;27842;52.272;8.052;2023-08-24T17:43:45;26.20;89.50
40960;DHT22;27842;52.272;8.052;2023-08-24T17:46:11;26.20;89.70
40960;DHT22;27842;52.272;8.052;2023-08-24T17:48:37;26.10;89.40
40960;DHT22;27842;52.272;8.052;2023-08-24T17:51:02;26.10;89.70
40960;DHT22;27842;52.272;8.052;2023-08-24T17:53:30;26.10;89.70
40960;DHT22;27842;52.272;8.052;2023-08-24T17:55:57;26.10;90.00
40960;DHT22;27842;52.272;8.052;2023-08-24T17:58:23;26.10;89.90
40960;DHT22;27842;52.272;8.052;2023-08-24T18:00:49;26.00;89.70
40960;DHT22;27842;52.272;8.052;2023-08-24T18:03:15;26.00;89.90
40960;DHT22;27842;52.272;8.052;2023-08-24T18:05:41;26.00;89.70
40960;DHT22;27842;52.272;8.052;2023-08-24T18:08:06;25.90;89.80
40960;DHT22;27842;52.272;8.052;2023-08-24T18:10:32;25.90;89.80
40960;DHT22;27842;52.272;8.052;2023-08-24T18:12:57;25.90;89.80
40960;DHT22;27842;52.272;8.052;2023-08-24T18:15:26;25.90;89.90
40960;DHT22;27842;52.272;8.052;2023-08-24T18:17:51;25.90;90.00
40960;DHT22;27842;52.272;8.052;2023-08-24T18:20:17;25.90;89.90
40960;DHT22;27842;52.272;8.052;2023-08-24T18:22:44;25.90;89.90
40960;DHT22;27842;52.272;8.052;2023-08-24T18:25:09;25.80;89.90
40960;DHT22;27842;52.272;8.052;2023-08-24T18:27:35;25.80;90.10
40960;DHT22;27842;52.272;8.052;2023-08-24T18:30:02;25.80;90.00
40960;DHT22;27842;52.272;8.052;2023-08-24T18:32:29;25.80;90.20
40960;DHT22;27842;52.272;8.052;2023-08-24T18:34:55;25.80;90.30
40960;DHT22;27842;52.272;8.052;2023-08-24T18:37:23;25.70;90.40
40960;DHT22;27842;52.272;8.052;2023-08-24T18:39:49;25.70;90.20
40960;DHT22;27842;52.272;8.052;2023-08-24T18:42:14;25.70;90.10
40960;DHT22;27842;52.272;8.052;2023-08-24T18:44:40;25.70;90.10
40960;DHT22;27842;52.272;8.052;2023-08-24T18:47:06;25.70;90.10
40960;DHT22;27842;52.272;8.052;2023-08-24T18:49:32;25.70;90.20
40960;DHT22;27842;52.272;8.052;2023-08-24T18:51:57;25.60;90.20
40960;DHT22;27842;52.272;8.052;2023-08-24T18:54:23;25.60;90.20
40960;DHT22;27842;52.272;8.052;2023-08-24T18:56:49;25.60;90.30
40960;DHT22;27842;52.272;8.052;2023-08-24T18:59:15;25.50;90.30
40960;DHT22;27842;52.272;8.052;2023-08-24T19:01:40;25.50;90.50
40960;DHT22;27842;52.272;8.052;2023-08-24T19:04:06;25.50;90.70
40960;DHT22;27842;52.272;8.052;2023-08-24T19:06:32;25.50;90.60
40960;DHT22;27842;52.272;8.052;2023-08-24T19:08:58;25.50;90.50
40960;DHT22;27842;52.272;8.052;2023-08-24T19:11:23;25.40;90.40
40960;DHT22;27842;52.272;8.052;2023-08-24T19:13:50;25.40;90.40
40960;DHT22;27842;52.272;8.052;2023-08-24T19:16:17;25.40;90.50
40960;DHT22;27842;52.272;8.052;2023-08-24T19:18:43;25.30;90.40
40960;DHT22;27842;52.272;8.052;2023-08-24T19:21:08;25.30;90.40
40960;DHT22;27842;52.272;8.052;2023-08-24T19:23:37;25.30;90.40
40960;DHT22;27842;52.272;8.052;2023-08-24T19:26:03;25.30;90.50
40960;DHT22;27842;52.272;8.052;2023-08-24T19:28:29;25.30;90.60
40960;DHT22;27842;52.272;8.052;2023-08-24T19:30:55;25.20;90.60
40960;DHT22;27842;52.272;8.052;2023-08-24T19:33:20;25.20;90.50
40960;DHT22;27842;52.272;8.052;2023-08-24T19:35:46;25.20;90.50
40960;DHT22;27842;52.272;8.052;2023-08-24T19:38:12;25.20;90.60
40960;DHT22;27842;52.272;8.052;2023-08-24T19:40:37;25.20;90.60
40960;DHT22;27842;52.272;8.052;2023-08-24T19:43:06;25.10;90.60
40960;DHT22;27842;52.272;8.052;2023-08-24T19:45:32;25.10;90.60
40960;DHT22;27842;52.272;8.052;2023-08-24T19:48:00;25.10;90.70
40960;DHT22;27842;52.272;8.052;2023-08-24T19:50:29;25.00;90.70
40960;DHT22;27842;52.272;8.052;2023-08-24T19:52:55;25.00;90.90
40960;DHT22;27842;52.272;8.052;2023-08-24T19:55:20;25.00;90.70
40960;DHT22;27842;52.272;8.052;2023-08-24T19:57:49;25.00;91.00
40960;DHT22;27842;52.272;8.052;2023-08-24T20:00:14;24.90;90.80
40960;DHT22;27842;52.272;8.052;2023-08-24T20:02:41;24.90;90.80
40960;DHT22;27842;52.272;8.052;2023-08-24T20:05:07;24.90;91.00
40960;DHT22;27842;52.272;8.052;2023-08-24T20:07:35;24.80;90.80
40960;DHT22;27842;52.272;8.052;2023-08-24T20:10:01;24.80;90.90
40960;DHT22;27842;52.272;8.052;2023-08-24T20:12:29;24.80;91.00
40960;DHT22;27842;52.272;8.052;2023-08-24T20:14:54;24.80;90.90
40960;DHT22;27842;52.272;8.052;2023-08-24T20:17:20;24.70;90.90
40960;DHT22;27842;52.272;8.052;2023-08-24T20:19:45;24.70;91.10
40960;DHT22;27842;52.272;8.052;2023-08-24T20:22:11;24.60;91.10
40960;DHT22;27842;52.272;8.052;2023-08-24T20:24:37;24.60;91.20
40960;DHT22;27842;52.272;8.052;2023-08-24T20:27:04;24.60;91.10